sensor_id;sensor_type;location;lat;lon;timestamp;temperature;humidity
2651;DHT22;1335;48.180;16.342;2022-08-02T00:01:06;21.40;99.90
2651;DHT22;1335;48.180;16.342;2022-08-02T00:03:33;21.40;99.90
2651;DHT22;1335;48.180;16.342;2022-08-02T00:06:01;21.40;99.90
2651;DHT22;1335;48.180;16.342;2022-08-02T00:08:28;22.10;99.90
2651;DHT22;1335;48.180;16.342;2022-08-02T00:10:55;21.40;99.90
2651;DHT22;1335;48.180;16.342;2022-08-02T00:13:22;21.40;99.90
2651;DHT22;1335;48.180;16.342;2022-08-02T00:15:49;21.40;99.90
2651;DHT22;1335;48.180;16.342;2022-08-02T00:18:18;21.30;99.90
2651;DHT22;1335;48.180;16.342;2022-08-02T00:20:45;21.20;99.90
2651;DHT22;1335;48.180;16.342;2022-08-02T00:23:12;21.20;99.90
2651;DHT22;1335;48.180;16.342;2022-08-02T00:25:39;21.40;99.90
2651;DHT22;1335;48.180;16.342;2022-08-02T00:28:06;21.30;99.90
2651;DHT22;1335;48.180;16.342;2022-08-02T00:30:35;21.80;99.90
2651;DHT22;1335;48.180;16.342;2022-08-02T00:33:02;21.60;99.90
2651;DHT22;1335;48.180;16.342;2022-08-02T00:35:31;21.30;99.90
2651;DHT22;1335;48.180;16.342;2022-08-02T00:37:58;21.50;99.90
2651;DHT22;1335;48.180;16.342;2022-08-02T00:40:25;21.30;99.90
2651;DHT22;1335;48.180;16.342;2022-08-02T00:43:04;20.90;99.90
2651;DHT22;1335;48.180;16.342;2022-08-02T00:45:33;21.30;99.90
2651;DHT22;1335;48.180;16.342;2022-08-02T00:48:00;21.70;99.90
2651;DHT22;1335;48.180;16.342;2022-08-02T00:50:27;21.30;99.90
2651;DHT22;1335;48.180;16.342;2022-08-02T00:52:56;21.40;99.90
2651;DHT22;1335;48.180;16.342;2022-08-02T00:55:24;20.90;99.90
2651;DHT22;1335;48.180;16.342;2022-08-02T00:57:52;21.50;99.90
2651;DHT22;1335;48.180;16.342;2022-08-02T01:00:20;21.40;99.90
2651;DHT22;1335;48.180;16.342;2022-08-02T01:02:47;21.00;99.90
2651;DHT22;1335;48.180;16.342;2022-08-02T01:05:15;21.10;99.90
2651;DHT22;1335;48.180;16.342;2022-08-02T01:07:43;21.00;99.90
2651;DHT22;1335;48.180;16.342;2022-08-02T01:10:11;21.30;99.90
2651;DHT22;1335;48.180;16.342;2022-08-02T01:12:38;21.00;99.90
2651;DHT22;1335;48.180;16.342;2022-08-02T01:15:08;20.90;99.90
2651;DHT22;1335;48.180;16.342;2022-08-02T01:17:42;20.80;99.90
2651;DHT22;1335;48.180;16.342;2022-08-02T01:20:18;21.00;99.90
2651;DHT22;1335;48.180;16.342;2022-08-02T01:23:04;20.90;99.90
2651;DHT22;1335;48.180;16.342;2022-08-02T01:26:08;20.50;99.90
2651;DHT22;1335;48.180;16.342;2022-08-02T01:28:40;20.60;99.90
2651;DHT22;1335;48.180;16.342;2022-08-02T01:31:13;20.90;99.90
2651;DHT22;1335;48.180;16.342;2022-08-02T01:33:44;21.30;99.90
2651;DHT22;1335;48.180;16.342;2022-08-02T01:36:13;21.00;99.90
2651;DHT22;1335;48.180;16.342;2022-08-02T01:38:50;21.00;99.90
2651;DHT22;1335;48.180;16.342;2022-08-02T01:41:21;20.40;99.90
2651;DHT22;1335;48.180;16.342;2022-08-02T01:43:54;20.90;99.90
2651;DHT22;1335;48.180;16.342;2022-08-02T01:46:23;20.50;99.90
2651;DHT22;1335;48.180;16.342;2022-08-02T01:48:53;21.50;99.90
2651;DHT22;1335;48.180;16.342;2022-08-02T01:51:21;20.80;99.90
2651;DHT22;1335;48.180;16.342;2022-08-02T01:54:12;20.70;99.90
2651;DHT22;1335;48.180;16.342;2022-08-02T01:56:41;20.90;99.90
2651;DHT22;1335;48.180;16.342;2022-08-02T01:59:15;20.70;99.90
2651;DHT22;1335;48.180;16.342;2022-08-02T02:01:43;20.90;99.90
2651;DHT22;1335;48.180;16.342;2022-08-02T02:04:12;20.40;99.90
2651;DHT22;1335;48.180;16.342;2022-08-02T02:06:42;20.80;99.90
2651;DHT22;1335;48.180;16.342;2022-08-02T02:09:11;20.60;99.90
2651;DHT22;1335;48.180;16.342;2022-08-02T02:11:41;20.80;99.90
2651;DHT22;1335;48.180;16.342;2022-08-02T02:14:11;21.20;99.90
2651;DHT22;1335;48.180;16.342;2022-08-02T02:16:41;20.80;99.90
2651;DHT22;1335;48.180;16.342;2022-08-02T02:19:12;20.70;99.90
2651;DHT22;1335;48.180;16.342;2022-08-02T02:21:41;20.50;99.90
2651;DHT22;1335;48.180;16.342;2022-08-02T02:24:08;20.50;99.90
2651;DHT22;1335;48.180;16.342;2022-08-02T02:26:37;20.90;99.90
2651;DHT22;1335;48.180;16.342;2022-08-02T02:29:05;20.50;99.90
2651;DHT22;1335;48.180;16.342;2022-08-02T02:31:37;20.30;99.90
2651;DHT22;1335;48.180;16.342;2022-08-02T02:34:08;20.20;99.90
2651;DHT22;1335;48.180;16.342;2022-08-02T02:36:37;20.70;99.90
2651;DHT22;1335;48.180;16.342;2022-08-02T02:39:06;20.40;99.90
2651;DHT22;1335;48.180;16.342;2022-08-02T02:41:36;20.40;99.90
2651;DHT22;1335;48.180;16.342;2022-08-02T02:44:04;21.00;99.90
2651;DHT22;1335;48.180;16.342;2022-08-02T02:46:34;20.50;99.90
2651;DHT22;1335;48.180;16.342;2022-08-02T02:49:03;19.30;99.90
2651;DHT22;1335;48.180;16.342;2022-08-02T02:51:30;20.30;99.90
2651;DHT22;1335;48.180;16.342;2022-08-02T02:53:58;20.30;99.90
2651;DHT22;1335;48.180;16.342;2022-08-02T02:56:25;20.10;99.90
2651;DHT22;1335;48.180;16.342;2022-08-02T02:58:53;19.90;99.90
2651;DHT22;1335;48.180;16.342;2022-08-02T03:01:21;20.60;99.90
2651;DHT22;1335;48.180;16.342;2022-08-02T03:03:59;20.30;99.90
2651;DHT22;1335;48.180;16.342;2022-08-02T03:06:26;20.40;99.90
2651;DHT22;1335;48.180;16.342;2022-08-02T03:08:54;20.50;99.90
2651;DHT22;1335;48.180;16.342;2022-08-02T03:11:22;20.10;99.90
2651;DHT22;1335;48.180;16.342;2022-08-02T03:13:50;19.80;99.90
2651;DHT22;1335;48.180;16.342;2022-08-02T03:16:18;20.00;99.90
2651;DHT22;1335;48.180;16.342;2022-08-02T03:18:45;20.30;99.90
2651;DHT22;1335;48.180;16.342;2022-08-02T03:21:13;20.40;99.90
2651;DHT22;1335;48.180;16.342;2022-08-02T03:23:41;20.00;99.90
2651;DHT22;1335;48.180;16.342;2022-08-02T03:26:09;19.50;99.90
2651;DHT22;1335;48.180;16.342;2022-08-02T03:28:36;19.90;99.90
2651;DHT22;1335;48.180;16.342;2022-08-02T03:31:03;20.10;99.90
2651;DHT22;1335;48.180;16.342;2022-08-02T03:33:30;19.80;99.90
2651;DHT22;1335;48.180;16.342;2022-08-02T03:36:01;20.10;99.90
2651;DHT22;1335;48.180;16.342;2022-08-02T03:38:31;20.10;99.90
2651;DHT22;1335;48.180;16.342;2022-08-02T03:40:59;20.00;99.90
2651;DHT22;1335;48.180;16.342;2022-08-02T03:43:28;19.80;99.90
2651;DHT22;1335;48.180;16.342;2022-08-02T03:45:56;20.00;99.90
2651;DHT22;1335;48.180;16.342;2022-08-02T03:48:24;20.00;99.90
2651;DHT22;1335;48.180;16.342;2022-08-02T03:50:53;19.80;99.90
2651;DHT22;1335;48.180;16.342;2022-08-02T03:53:21;20.30;99.90
2651;DHT22;1335;48.180;16.342;2022-08-02T03:55:50;20.10;99.90
2651;DHT22;1335;48.180;16.342;2022-08-02T03:58:18;20.00;99.90
2651;DHT22;1335;48.180;16.342;2022-08-02T04:00:45;20.20;99.90
2651;DHT22;1335;48.180;16.342;2022-08-02T04:03:13;20.10;99.90
2651;DHT22;1335;48.180;16.342;2022-08-02T04:05:41;19.80;99.90
2651;DHT22;1335;48.180;16.342;2022-08-02T04:08:08;20.40;99.90
2651;DHT22;1335;48.180;16.342;2022-08-02T04:10:35;20.20;99.90
2651;DHT22;1335;48.180;16.342;2022-08-02T04:13:18;20.10;99.90
2651;DHT22;1335;48.180;16.342;2022-08-02T04:15:49;20.80;99.90
2651;DHT22;1335;48.180;16.342;2022-08-02T04:18:21;20.50;99.90
2651;DHT22;1335;48.180;16.342;2022-08-02T04:20:51;20.50;99.90
2651;DHT22;1335;48.180;16.342;2022-08-02T04:23:19;20.80;99.90
2651;DHT22;1335;48.180;16.342;2022-08-02T04:25:49;21.10;99.90
2651;DHT22;1335;48.180;16.342;2022-08-02T04:28:19;22.00;99.90
2651;DHT22;1335;48.180;16.342;2022-08-02T04:30:47;22.80;99.90
2651;DHT22;1335;48.180;16.342;2022-08-02T04:33:15;23.70;99.90
2651;DHT22;1335;48.180;16.342;2022-08-02T04:35:43;23.80;99.90
2651;DHT22;1335;48.180;16.342;2022-08-02T04:38:12;24.00;99.90
2651;DHT22;1335;48.180;16.342;2022-08-02T04:40:40;24.20;99.90
2651;DHT22;1335;48.180;16.342;2022-08-02T04:43:07;23.70;99.90
2651;DHT22;1335;48.180;16.342;2022-08-02T04:45:36;24.50;99.90
2651;DHT22;1335;48.180;16.342;2022-08-02T04:48:04;25.20;99.90
2651;DHT22;1335;48.180;16.342;2022-08-02T04:50:31;25.90;99.90
2651;DHT22;1335;48.180;16.342;2022-08-02T04:52:58;25.70;99.90
2651;DHT22;1335;48.180;16.342;2022-08-02T04:55:25;26.60;99.90
2651;DHT22;1335;48.180;16.342;2022-08-02T04:57:53;25.50;99.90
2651;DHT22;1335;48.180;16.342;2022-08-02T05:00:20;26.20;99.90
2651;DHT22;1335;48.180;16.342;2022-08-02T05:02:49;26.10;99.90
2651;DHT22;1335;48.180;16.342;2022-08-02T05:05:17;26.60;99.90
2651;DHT22;1335;48.180;16.342;2022-08-02T05:07:44;27.40;99.90
2651;DHT22;1335;48.180;16.342;2022-08-02T05:10:11;27.70;99.90
2651;DHT22;1335;48.180;16.342;2022-08-02T05:12:39;28.40;99.90
2651;DHT22;1335;48.180;16.342;2022-08-02T05:15:07;27.90;99.90
2651;DHT22;1335;48.180;16.342;2022-08-02T05:17:35;28.60;99.90
2651;DHT22;1335;48.180;16.342;2022-08-02T05:20:04;29.00;99.90
2651;DHT22;1335;48.180;16.342;2022-08-02T05:22:32;29.40;99.90
2651;DHT22;1335;48.180;16.342;2022-08-02T05:24:59;30.60;99.90
2651;DHT22;1335;48.180;16.342;2022-08-02T05:27:26;30.60;99.90
2651;DHT22;1335;48.180;16.342;2022-08-02T05:29:53;31.30;99.90
2651;DHT22;1335;48.180;16.342;2022-08-02T05:32:22;31.80;99.90
2651;DHT22;1335;48.180;16.342;2022-08-02T05:34:49;33.00;99.90
2651;DHT22;1335;48.180;16.342;2022-08-02T05:37:18;32.40;99.90
2651;DHT22;1335;48.180;16.342;2022-08-02T05:39:45;33.30;99.90
2651;DHT22;1335;48.180;16.342;2022-08-02T05:42:12;33.40;99.90
2651;DHT22;1335;48.180;16.342;2022-08-02T05:44:39;34.60;99.90
2651;DHT22;1335;48.180;16.342;2022-08-02T05:47:06;35.90;99.90
2651;DHT22;1335;48.180;16.342;2022-08-02T05:49:33;36.80;99.90
2651;DHT22;1335;48.180;16.342;2022-08-02T05:52:06;38.20;99.90
2651;DHT22;1335;48.180;16.342;2022-08-02T05:54:42;39.30;99.90
2651;DHT22;1335;48.180;16.342;2022-08-02T05:57:17;38.70;99.90
2651;DHT22;1335;48.180;16.342;2022-08-02T05:59:57;39.00;99.90
2651;DHT22;1335;48.180;16.342;2022-08-02T06:02:30;35.70;99.90
2651;DHT22;1335;48.180;16.342;2022-08-02T06:05:03;34.20;99.90
2651;DHT22;1335;48.180;16.342;2022-08-02T06:07:35;38.10;99.90
2651;DHT22;1335;48.180;16.342;2022-08-02T06:10:04;40.20;99.90
2651;DHT22;1335;48.180;16.342;2022-08-02T06:12:35;37.60;99.90
2651;DHT22;1335;48.180;16.342;2022-08-02T06:15:04;38.60;99.90
2651;DHT22;1335;48.180;16.342;2022-08-02T06:17:32;42.00;99.90
2651;DHT22;1335;48.180;16.342;2022-08-02T06:20:00;43.30;99.90
2651;DHT22;1335;48.180;16.342;2022-08-02T06:22:27;44.50;99.90
2651;DHT22;1335;48.180;16.342;2022-08-02T06:24:57;44.90;99.90
2651;DHT22;1335;48.180;16.342;2022-08-02T06:27:26;43.60;99.90
2651;DHT22;1335;48.180;16.342;2022-08-02T06:29:54;45.30;99.90
2651;DHT22;1335;48.180;16.342;2022-08-02T06:32:21;41.80;99.90
2651;DHT22;1335;48.180;16.342;2022-08-02T06:34:49;38.00;99.90
2651;DHT22;1335;48.180;16.342;2022-08-02T06:37:24;36.40;99.90
2651;DHT22;1335;48.180;16.342;2022-08-02T06:40:00;34.40;99.90
2651;DHT22;1335;48.180;16.342;2022-08-02T06:42:36;32.20;99.90
2651;DHT22;1335;48.180;16.342;2022-08-02T06:45:08;31.00;99.90
2651;DHT22;1335;48.180;16.342;2022-08-02T06:47:36;29.80;99.90
2651;DHT22;1335;48.180;16.342;2022-08-02T06:50:03;29.20;99.90
2651;DHT22;1335;48.180;16.342;2022-08-02T06:52:31;28.70;99.90
2651;DHT22;1335;48.180;16.342;2022-08-02T06:55:00;27.70;99.90
2651;DHT22;1335;48.180;16.342;2022-08-02T06:57:28;27.70;99.90
2651;DHT22;1335;48.180;16.342;2022-08-02T06:59:58;27.10;99.90
2651;DHT22;1335;48.180;16.342;2022-08-02T07:02:28;27.10;99.90
2651;DHT22;1335;48.180;16.342;2022-08-02T07:04:55;26.40;99.90
2651;DHT22;1335;48.180;16.342;2022-08-02T07:07:23;26.30;99.90
2651;DHT22;1335;48.180;16.342;2022-08-02T07:09:50;25.70;99.90
2651;DHT22;1335;48.180;16.342;2022-08-02T07:12:18;25.60;99.90
2651;DHT22;1335;48.180;16.342;2022-08-02T07:14:45;25.30;99.90
2651;DHT22;1335;48.180;16.342;2022-08-02T07:17:14;24.70;99.90
2651;DHT22;1335;48.180;16.342;2022-08-02T07:19:41;24.60;99.90
2651;DHT22;1335;48.180;16.342;2022-08-02T07:22:08;24.90;99.90
2651;DHT22;1335;48.180;16.342;2022-08-02T07:24:37;25.00;99.90
2651;DHT22;1335;48.180;16.342;2022-08-02T07:27:05;24.70;99.90
2651;DHT22;1335;48.180;16.342;2022-08-02T07:29:35;24.60;99.90
2651;DHT22;1335;48.180;16.342;2022-08-02T07:32:03;25.70;99.90
2651;DHT22;1335;48.180;16.342;2022-08-02T07:34:31;25.20;99.90
2651;DHT22;1335;48.180;16.342;2022-08-02T07:36:59;25.40;99.90
2651;DHT22;1335;48.180;16.342;2022-08-02T07:39:26;25.40;99.90
2651;DHT22;1335;48.180;16.342;2022-08-02T07:41:53;26.30;99.90
2651;DHT22;1335;48.180;16.342;2022-08-02T07:44:20;26.30;99.90
2651;DHT22;1335;48.180;16.342;2022-08-02T07:46:48;26.90;99.90
2651;DHT22;1335;48.180;16.342;2022-08-02T07:49:15;26.90;99.90
2651;DHT22;1335;48.180;16.342;2022-08-02T07:51:45;27.40;99.90
2651;DHT22;1335;48.180;16.342;2022-08-02T07:54:13;27.20;99.90
2651;DHT22;1335;48.180;16.342;2022-08-02T07:56:40;27.70;99.90
2651;DHT22;1335;48.180;16.342;2022-08-02T07:59:07;27.50;99.90
2651;DHT22;1335;48.180;16.342;2022-08-02T08:01:35;27.80;99.90
2651;DHT22;1335;48.180;16.342;2022-08-02T08:04:02;27.90;99.90
2651;DHT22;1335;48.180;16.342;2022-08-02T08:06:30;28.90;99.90
2651;DHT22;1335;48.180;16.342;2022-08-02T08:08:58;28.30;99.90
2651;DHT22;1335;48.180;16.342;2022-08-02T08:11:26;28.20;99.90
2651;DHT22;1335;48.180;16.342;2022-08-02T08:13:53;27.20;99.90
2651;DHT22;1335;48.180;16.342;2022-08-02T08:16:20;27.80;99.90
2651;DHT22;1335;48.180;16.342;2022-08-02T08:18:47;27.00;99.90
2651;DHT22;1335;48.180;16.342;2022-08-02T08:21:15;27.20;99.90
2651;DHT22;1335;48.180;16.342;2022-08-02T08:23:42;26.90;99.90
2651;DHT22;1335;48.180;16.342;2022-08-02T08:26:10;27.30;99.90
2651;DHT22;1335;48.180;16.342;2022-08-02T08:28:37;26.90;99.90
2651;DHT22;1335;48.180;16.342;2022-08-02T08:31:05;27.50;99.90
2651;DHT22;1335;48.180;16.342;2022-08-02T08:33:32;27.50;99.90
2651;DHT22;1335;48.180;16.342;2022-08-02T08:35:59;28.00;99.90
2651;DHT22;1335;48.180;16.342;2022-08-02T08:38:26;28.10;99.90
2651;DHT22;1335;48.180;16.342;2022-08-02T08:40:54;28.30;99.90
2651;DHT22;1335;48.180;16.342;2022-08-02T08:43:23;28.70;99.90
2651;DHT22;1335;48.180;16.342;2022-08-02T08:45:50;29.00;99.90
2651;DHT22;1335;48.180;16.342;2022-08-02T08:48:18;28.80;99.90
2651;DHT22;1335;48.180;16.342;2022-08-02T08:50:51;28.10;99.90
2651;DHT22;1335;48.180;16.342;2022-08-02T08:53:19;28.10;99.90
2651;DHT22;1335;48.180;16.342;2022-08-02T08:55:47;28.60;99.90
2651;DHT22;1335;48.180;16.342;2022-08-02T08:58:15;29.50;99.90
2651;DHT22;1335;48.180;16.342;2022-08-02T09:00:45;29.80;99.90
2651;DHT22;1335;48.180;16.342;2022-08-02T09:03:12;31.60;99.90
2651;DHT22;1335;48.180;16.342;2022-08-02T09:05:40;32.80;99.90
2651;DHT22;1335;48.180;16.342;2022-08-02T09:08:08;32.70;99.90
2651;DHT22;1335;48.180;16.342;2022-08-02T09:10:39;33.80;99.90
2651;DHT22;1335;48.180;16.342;2022-08-02T09:13:09;35.30;99.90
2651;DHT22;1335;48.180;16.342;2022-08-02T09:15:37;37.00;99.90
2651;DHT22;1335;48.180;16.342;2022-08-02T09:18:07;37.50;99.90
2651;DHT22;1335;48.180;16.342;2022-08-02T09:20:35;36.80;99.90
2651;DHT22;1335;48.180;16.342;2022-08-02T09:23:16;40.60;99.90
2651;DHT22;1335;48.180;16.342;2022-08-02T09:25:55;42.90;99.90
2651;DHT22;1335;48.180;16.342;2022-08-02T09:28:25;43.70;99.90
2651;DHT22;1335;48.180;16.342;2022-08-02T09:30:56;45.80;99.90
2651;DHT22;1335;48.180;16.342;2022-08-02T09:33:26;46.20;99.90
2651;DHT22;1335;48.180;16.342;2022-08-02T09:36:01;46.20;99.90
2651;DHT22;1335;48.180;16.342;2022-08-02T09:38:31;45.70;99.90
2651;DHT22;1335;48.180;16.342;2022-08-02T09:40:59;46.10;99.90
2651;DHT22;1335;48.180;16.342;2022-08-02T09:43:37;46.00;99.90
2651;DHT22;1335;48.180;16.342;2022-08-02T09:46:12;45.70;99.90
2651;DHT22;1335;48.180;16.342;2022-08-02T09:48:49;45.70;99.90
2651;DHT22;1335;48.180;16.342;2022-08-02T09:51:18;45.50;99.90
2651;DHT22;1335;48.180;16.342;2022-08-02T09:53:47;46.00;99.90
2651;DHT22;1335;48.180;16.342;2022-08-02T09:56:15;46.50;99.90
2651;DHT22;1335;48.180;16.342;2022-08-02T09:58:43;45.30;99.90
2651;DHT22;1335;48.180;16.342;2022-08-02T10:01:10;47.10;99.90
2651;DHT22;1335;48.180;16.342;2022-08-02T10:03:54;46.80;99.90
2651;DHT22;1335;48.180;16.342;2022-08-02T10:06:25;46.80;99.90
2651;DHT22;1335;48.180;16.342;2022-08-02T10:08:53;47.70;99.90
2651;DHT22;1335;48.180;16.342;2022-08-02T10:11:22;47.60;99.90
2651;DHT22;1335;48.180;16.342;2022-08-02T10:13:50;44.90;99.90
2651;DHT22;1335;48.180;16.342;2022-08-02T10:16:19;44.50;99.90
2651;DHT22;1335;48.180;16.342;2022-08-02T10:18:48;44.70;99.90
2651;DHT22;1335;48.180;16.342;2022-08-02T10:21:22;43.30;99.90
2651;DHT22;1335;48.180;16.342;2022-08-02T10:23:57;40.40;99.90
2651;DHT22;1335;48.180;16.342;2022-08-02T10:26:27;41.30;99.90
2651;DHT22;1335;48.180;16.342;2022-08-02T10:28:55;40.10;99.90
2651;DHT22;1335;48.180;16.342;2022-08-02T10:31:40;42.40;99.90
2651;DHT22;1335;48.180;16.342;2022-08-02T10:34:10;41.10;99.90
2651;DHT22;1335;48.180;16.342;2022-08-02T10:36:43;38.90;99.90
2651;DHT22;1335;48.180;16.342;2022-08-02T10:39:12;37.50;99.90
2651;DHT22;1335;48.180;16.342;2022-08-02T10:41:41;38.30;99.90
2651;DHT22;1335;48.180;16.342;2022-08-02T10:44:20;40.30;99.90
2651;DHT22;1335;48.180;16.342;2022-08-02T10:47:20;38.90;99.90
2651;DHT22;1335;48.180;16.342;2022-08-02T10:49:50;38.30;99.90
2651;DHT22;1335;48.180;16.342;2022-08-02T10:52:19;40.60;99.90
2651;DHT22;1335;48.180;16.342;2022-08-02T10:54:49;42.90;99.90
2651;DHT22;1335;48.180;16.342;2022-08-02T10:57:19;38.60;99.90
2651;DHT22;1335;48.180;16.342;2022-08-02T10:59:48;35.50;99.90
2651;DHT22;1335;48.180;16.342;2022-08-02T11:02:39;39.20;99.90
2651;DHT22;1335;48.180;16.342;2022-08-02T11:05:09;40.90;99.90
2651;DHT22;1335;48.180;16.342;2022-08-02T11:07:39;41.70;99.90
2651;DHT22;1335;48.180;16.342;2022-08-02T11:13:12;42.30;99.90
2651;DHT22;1335;48.180;16.342;2022-08-02T11:15:51;43.20;99.90
2651;DHT22;1335;48.180;16.342;2022-08-02T11:18:20;40.80;99.90
2651;DHT22;1335;48.180;16.342;2022-08-02T11:21:21;40.90;99.90
2651;DHT22;1335;48.180;16.342;2022-08-02T11:23:51;40.40;99.90
2651;DHT22;1335;48.180;16.342;2022-08-02T11:26:43;38.50;99.90
2651;DHT22;1335;48.180;16.342;2022-08-02T11:29:11;36.50;99.90
2651;DHT22;1335;48.180;16.342;2022-08-02T11:31:39;38.50;99.90
2651;DHT22;1335;48.180;16.342;2022-08-02T11:34:07;37.80;99.90
2651;DHT22;1335;48.180;16.342;2022-08-02T11:36:44;39.10;99.90
2651;DHT22;1335;48.180;16.342;2022-08-02T11:39:18;39.10;99.90
2651;DHT22;1335;48.180;16.342;2022-08-02T11:41:49;36.80;99.90
2651;DHT22;1335;48.180;16.342;2022-08-02T11:44:17;38.00;99.90
2651;DHT22;1335;48.180;16.342;2022-08-02T11:46:52;38.30;99.90
2651;DHT22;1335;48.180;16.342;2022-08-02T11:49:23;39.40;99.90
2651;DHT22;1335;48.180;16.342;2022-08-02T11:51:55;40.50;99.90
2651;DHT22;1335;48.180;16.342;2022-08-02T11:54:35;37.90;99.90
2651;DHT22;1335;48.180;16.342;2022-08-02T11:57:13;36.50;99.90
2651;DHT22;1335;48.180;16.342;2022-08-02T11:59:43;36.80;99.90
2651;DHT22;1335;48.180;16.342;2022-08-02T12:02:14;37.80;99.90
2651;DHT22;1335;48.180;16.342;2022-08-02T12:07:35;38.20;99.90
2651;DHT22;1335;48.180;16.342;2022-08-02T12:10:09;39.00;99.90
2651;DHT22;1335;48.180;16.342;2022-08-02T12:12:50;37.80;99.90
2651;DHT22;1335;48.180;16.342;2022-08-02T12:15:33;35.70;99.90
2651;DHT22;1335;48.180;16.342;2022-08-02T12:18:03;35.70;99.90
2651;DHT22;1335;48.180;16.342;2022-08-02T12:20:56;34.90;99.90
2651;DHT22;1335;48.180;16.342;2022-08-02T12:23:26;34.20;99.90
2651;DHT22;1335;48.180;16.342;2022-08-02T12:26:02;34.30;99.90
2651;DHT22;1335;48.180;16.342;2022-08-02T12:28:35;33.70;99.90
2651;DHT22;1335;48.180;16.342;2022-08-02T12:31:06;33.20;99.90
2651;DHT22;1335;48.180;16.342;2022-08-02T12:33:44;31.60;99.90
2651;DHT22;1335;48.180;16.342;2022-08-02T12:36:14;32.80;99.90
2651;DHT22;1335;48.180;16.342;2022-08-02T12:38:50;34.30;99.90
2651;DHT22;1335;48.180;16.342;2022-08-02T12:41:19;34.60;99.90
2651;DHT22;1335;48.180;16.342;2022-08-02T12:43:46;34.40;99.90
2651;DHT22;1335;48.180;16.342;2022-08-02T12:46:15;33.30;99.90
2651;DHT22;1335;48.180;16.342;2022-08-02T12:48:43;33.80;99.90
2651;DHT22;1335;48.180;16.342;2022-08-02T12:51:24;34.60;99.90
2651;DHT22;1335;48.180;16.342;2022-08-02T12:53:52;34.60;99.90
2651;DHT22;1335;48.180;16.342;2022-08-02T12:56:28;35.10;99.90
2651;DHT22;1335;48.180;16.342;2022-08-02T12:58:56;35.10;99.90
2651;DHT22;1335;48.180;16.342;2022-08-02T13:01:25;34.80;99.90
2651;DHT22;1335;48.180;16.342;2022-08-02T13:03:53;34.10;99.90
2651;DHT22;1335;48.180;16.342;2022-08-02T13:06:21;32.50;99.90
2651;DHT22;1335;48.180;16.342;2022-08-02T13:08:49;33.00;99.90
2651;DHT22;1335;48.180;16.342;2022-08-02T13:11:18;32.70;99.90
2651;DHT22;1335;48.180;16.342;2022-08-02T13:13:47;32.30;99.90
2651;DHT22;1335;48.180;16.342;2022-08-02T13:16:16;31.70;99.90
2651;DHT22;1335;48.180;16.342;2022-08-02T13:18:43;31.90;99.90
2651;DHT22;1335;48.180;16.342;2022-08-02T13:21:11;31.70;99.90
2651;DHT22;1335;48.180;16.342;2022-08-02T13:23:38;32.50;99.90
2651;DHT22;1335;48.180;16.342;2022-08-02T13:26:05;32.40;99.90
2651;DHT22;1335;48.180;16.342;2022-08-02T13:28:33;32.30;99.90
2651;DHT22;1335;48.180;16.342;2022-08-02T13:31:02;31.10;99.90
2651;DHT22;1335;48.180;16.342;2022-08-02T13:33:29;31.90;99.90
2651;DHT22;1335;48.180;16.342;2022-08-02T13:35:56;31.60;99.90
2651;DHT22;1335;48.180;16.342;2022-08-02T13:38:23;31.20;99.90
2651;DHT22;1335;48.180;16.342;2022-08-02T13:40:51;30.70;99.90
2651;DHT22;1335;48.180;16.342;2022-08-02T13:43:38;30.10;99.90
2651;DHT22;1335;48.180;16.342;2022-08-02T13:46:10;29.70;99.90
2651;DHT22;1335;48.180;16.342;2022-08-02T13:48:37;30.60;99.90
2651;DHT22;1335;48.180;16.342;2022-08-02T13:51:05;30.70;99.90
2651;DHT22;1335;48.180;16.342;2022-08-02T13:53:36;31.60;99.90
2651;DHT22;1335;48.180;16.342;2022-08-02T13:56:05;30.60;99.90
2651;DHT22;1335;48.180;16.342;2022-08-02T13:58:32;29.90;99.90
2651;DHT22;1335;48.180;16.342;2022-08-02T14:00:59;31.10;99.90
2651;DHT22;1335;48.180;16.342;2022-08-02T14:03:28;29.60;99.90
2651;DHT22;1335;48.180;16.342;2022-08-02T14:05:56;30.10;99.90
2651;DHT22;1335;48.180;16.342;2022-08-02T14:08:23;29.20;99.90
2651;DHT22;1335;48.180;16.342;2022-08-02T14:10:51;29.70;99.90
2651;DHT22;1335;48.180;16.342;2022-08-02T14:13:18;29.40;99.90
2651;DHT22;1335;48.180;16.342;2022-08-02T14:15:45;29.50;99.90
2651;DHT22;1335;48.180;16.342;2022-08-02T14:18:12;29.40;99.90
2651;DHT22;1335;48.180;16.342;2022-08-02T14:20:42;29.90;99.90
2651;DHT22;1335;48.180;16.342;2022-08-02T14:23:10;29.40;99.90
2651;DHT22;1335;48.180;16.342;2022-08-02T14:25:37;29.60;99.90
2651;DHT22;1335;48.180;16.342;2022-08-02T14:28:04;29.50;99.90
2651;DHT22;1335;48.180;16.342;2022-08-02T14:30:32;29.50;99.90
2651;DHT22;1335;48.180;16.342;2022-08-02T14:32:59;30.30;99.90
2651;DHT22;1335;48.180;16.342;2022-08-02T14:35:26;31.10;99.90
2651;DHT22;1335;48.180;16.342;2022-08-02T14:37:55;31.00;99.90
2651;DHT22;1335;48.180;16.342;2022-08-02T14:40:23;30.20;99.90
2651;DHT22;1335;48.180;16.342;2022-08-02T14:42:51;30.40;99.90
2651;DHT22;1335;48.180;16.342;2022-08-02T14:45:18;30.70;99.90
2651;DHT22;1335;48.180;16.342;2022-08-02T14:47:47;30.50;99.90
2651;DHT22;1335;48.180;16.342;2022-08-02T14:50:14;31.10;99.90
2651;DHT22;1335;48.180;16.342;2022-08-02T14:52:42;29.70;99.90
2651;DHT22;1335;48.180;16.342;2022-08-02T14:55:11;30.50;99.90
2651;DHT22;1335;48.180;16.342;2022-08-02T14:57:39;29.80;99.90
2651;DHT22;1335;48.180;16.342;2022-08-02T15:00:07;29.10;99.90
2651;DHT22;1335;48.180;16.342;2022-08-02T15:02:35;29.70;99.90
2651;DHT22;1335;48.180;16.342;2022-08-02T15:05:02;30.10;99.90
2651;DHT22;1335;48.180;16.342;2022-08-02T15:07:29;29.60;99.90
2651;DHT22;1335;48.180;16.342;2022-08-02T15:09:56;30.10;99.90
2651;DHT22;1335;48.180;16.342;2022-08-02T15:12:25;29.50;99.90
2651;DHT22;1335;48.180;16.342;2022-08-02T15:14:52;30.20;99.90
2651;DHT22;1335;48.180;16.342;2022-08-02T15:17:19;29.90;99.90
2651;DHT22;1335;48.180;16.342;2022-08-02T15:19:46;29.10;99.90
2651;DHT22;1335;48.180;16.342;2022-08-02T15:22:14;28.90;99.90
2651;DHT22;1335;48.180;16.342;2022-08-02T15:24:41;30.00;99.90
2651;DHT22;1335;48.180;16.342;2022-08-02T15:27:08;29.60;99.90
2651;DHT22;1335;48.180;16.342;2022-08-02T15:29:39;29.30;99.90
2651;DHT22;1335;48.180;16.342;2022-08-02T15:32:07;29.60;99.90
2651;DHT22;1335;48.180;16.342;2022-08-02T15:34:34;30.10;99.90
2651;DHT22;1335;48.180;16.342;2022-08-02T15:37:02;30.80;99.90
2651;DHT22;1335;48.180;16.342;2022-08-02T15:39:30;29.90;99.90
2651;DHT22;1335;48.180;16.342;2022-08-02T15:41:58;30.20;99.90
2651;DHT22;1335;48.180;16.342;2022-08-02T15:44:25;29.60;99.90
2651;DHT22;1335;48.180;16.342;2022-08-02T15:46:53;30.00;99.90
2651;DHT22;1335;48.180;16.342;2022-08-02T15:49:21;30.00;99.90
2651;DHT22;1335;48.180;16.342;2022-08-02T15:51:49;30.00;99.90
2651;DHT22;1335;48.180;16.342;2022-08-02T15:54:16;30.30;99.90
2651;DHT22;1335;48.180;16.342;2022-08-02T15:56:43;30.30;99.90
2651;DHT22;1335;48.180;16.342;2022-08-02T15:59:10;29.90;99.90
2651;DHT22;1335;48.180;16.342;2022-08-02T16:01:39;30.30;99.90
2651;DHT22;1335;48.180;16.342;2022-08-02T16:04:07;30.10;99.90
2651;DHT22;1335;48.180;16.342;2022-08-02T16:06:34;30.00;99.90